createdAt,value
2019-04-21T00:00:06.184Z,0.00
2019-04-21T00:01:05.492Z,0.00
2019-04-21T00:02:01.670Z,0.00
2019-04-21T00:03:07.376Z,0.00
2019-04-21T00:04:12.316Z,0.00
2019-04-21T00:05:24.975Z,0.00
2019-04-21T00:06:24.981Z,0.00
2019-04-21T00:07:20.563Z,0.00
2019-04-21T00:08:33.522Z,0.00
2019-04-21T00:09:31.316Z,0.00
2019-04-21T00:10:28.511Z,0.00
2019-04-21T00:11:22.125Z,0.00
2019-04-21T00:12:20.607Z,0.00
2019-04-21T00:13:20.468Z,0.00
2019-04-21T00:14:14.091Z,0.00
2019-04-21T00:15:15.801Z,0.00
2019-04-21T00:16:06.741Z,0.00
2019-04-21T00:17:09.071Z,0.00
2019-04-21T00:18:04.421Z,0.00
2019-04-21T00:19:10.347Z,0.00
2019-04-21T00:20:15.553Z,0.00
2019-04-21T00:21:10.996Z,0.00
2019-04-21T00:22:14.883Z,0.00
2019-04-21T00:23:18.134Z,0.00
2019-04-21T00:24:16.555Z,0.00
2019-04-21T00:25:13.912Z,0.00
2019-04-21T00:26:15.748Z,0.00
2019-04-21T00:27:18.641Z,0.00
2019-04-21T00:28:28.922Z,0.00
2019-04-21T00:29:26.810Z,0.00
2019-04-21T00:30:21.746Z,0.00
2019-04-21T00:31:23.038Z,0.00
2019-04-21T00:32:14.578Z,0.00
2019-04-21T00:33:09.038Z,0.00
2019-04-21T00:34:00.674Z,0.00
2019-04-21T00:35:06.389Z,0.00
2019-04-21T00:36:09.589Z,0.00
2019-04-21T00:37:14.605Z,0.00
2019-04-21T00:38:25.049Z,0.00
2019-04-21T00:39:28.659Z,0.00
2019-04-21T00:40:25.651Z,0.00
2019-04-21T00:41:26.068Z,0.00
2019-04-21T00:42:21.606Z,0.00
2019-04-21T00:43:19.605Z,0.00
2019-04-21T00:44:12.898Z,0.00
2019-04-21T00:45:15.288Z,0.00
2019-04-21T00:46:12.340Z,0.00
2019-04-21T00:47:24.130Z,0.00
2019-04-21T00:48:25.443Z,0.00
2019-04-21T00:49:18.155Z,0.00
2019-04-21T00:50:20.552Z,0.00
2019-04-21T00:52:30.273Z,0.00
2019-04-21T00:53:31.793Z,0.00
2019-04-21T00:54:27.769Z,0.00
2019-04-21T00:55:30.909Z,0.00
2019-04-21T00:56:23.905Z,0.00
2019-04-21T00:57:25.283Z,0.00
2019-04-21T00:58:23.694Z,0.00
2019-04-21T00:59:26.913Z,0.00
2019-04-21T01:00:26.143Z,0.00
2019-04-21T01:01:21.832Z,0.00
2019-04-21T01:02:16.863Z,0.00
2019-04-21T01:03:21.724Z,0.00
2019-04-21T01:04:26.349Z,0.00
2019-04-21T01:05:22.442Z,0.00
2019-04-21T01:06:22.732Z,0.00
2019-04-21T01:07:25.710Z,0.00
2019-04-21T01:08:23.117Z,0.00
2019-04-21T01:09:19.755Z,0.00
2019-04-21T01:10:14.864Z,0.00
2019-04-21T01:11:18.914Z,0.00
2019-04-21T01:12:23.288Z,0.00
2019-04-21T01:13:21.647Z,0.00
2019-04-21T01:14:30.441Z,0.00
2019-04-21T01:15:24.686Z,0.00
2019-04-21T01:16:20.850Z,0.00
2019-04-21T01:17:22.945Z,0.00
2019-04-21T01:18:24.478Z,0.00
2019-04-21T01:19:16.785Z,0.00
2019-04-21T01:20:12.959Z,0.00
2019-04-21T01:20:59.291Z,0.00
2019-04-21T01:21:59.222Z,0.00
2019-04-21T01:23:00.251Z,0.00
2019-04-21T01:24:10.371Z,0.00
2019-04-21T01:25:09.050Z,0.00
2019-04-21T01:26:13.119Z,0.00
2019-04-21T01:27:11.110Z,0.00
2019-04-21T01:28:13.605Z,0.00
2019-04-21T01:29:15.477Z,0.00
2019-04-21T01:30:16.493Z,0.00
2019-04-21T01:31:17.453Z,0.00
2019-04-21T01:32:28.326Z,0.00
2019-04-21T01:33:21.752Z,0.00
2019-04-21T01:34:22.007Z,0.00
2019-04-21T01:35:21.075Z,0.00
2019-04-21T01:36:15.622Z,0.00
2019-04-21T01:38:27.310Z,0.00
2019-04-21T01:39:19.658Z,0.00
2019-04-21T01:40:24.182Z,0.00
2019-04-21T01:41:41.309Z,0.00
2019-04-21T01:42:15.854Z,0.00
2019-04-21T01:43:21.868Z,0.00
2019-04-21T01:44:25.666Z,0.00
2019-04-21T01:46:13.894Z,0.00
2019-04-21T01:47:11.807Z,0.00
2019-04-21T01:48:15.878Z,0.00
2019-04-21T01:49:11.567Z,0.00
2019-04-21T01:50:07.077Z,0.00
2019-04-21T01:51:16.043Z,0.00
2019-04-21T01:52:24.715Z,0.00
2019-04-21T01:53:24.855Z,0.00
2019-04-21T01:54:23.507Z,0.00
2019-04-21T01:55:17.808Z,0.00
2019-04-21T01:56:16.948Z,0.00
2019-04-21T01:57:20.098Z,0.00
2019-04-21T01:58:12.886Z,0.00
2019-04-21T01:59:06.997Z,0.00
2019-04-21T02:00:12.463Z,0.00
2019-04-21T02:01:21.593Z,0.00
2019-04-21T02:02:18.787Z,0.00
2019-04-21T02:03:37.332Z,0.00
2019-04-21T02:04:26.977Z,0.00
2019-04-21T02:05:26.488Z,0.00
2019-04-21T02:06:21.184Z,0.00
2019-04-21T02:07:21.905Z,0.00
2019-04-21T02:08:14.842Z,0.00
2019-04-21T02:09:17.299Z,0.00
2019-04-21T02:10:21.130Z,0.00
2019-04-21T02:11:26.376Z,0.00
2019-04-21T02:12:20.951Z,0.00
2019-04-21T02:13:17.394Z,0.00
2019-04-21T02:14:22.996Z,0.00
2019-04-21T02:15:36.516Z,0.00
2019-04-21T02:16:18.170Z,0.00
2019-04-21T02:17:16.418Z,0.00
2019-04-21T02:18:18.571Z,0.00
2019-04-21T02:19:13.771Z,0.00
2019-04-21T02:20:12.030Z,0.00
2019-04-21T02:21:03.726Z,0.00
2019-04-21T02:22:19.273Z,0.00
2019-04-21T02:23:28.271Z,0.00
2019-04-21T02:24:23.838Z,0.00
2019-04-21T02:25:19.766Z,0.00
2019-04-21T02:26:20.591Z,0.00
2019-04-21T02:27:19.191Z,0.00
2019-04-21T02:28:22.432Z,0.00
2019-04-21T02:29:21.848Z,0.00
2019-04-21T02:30:33.598Z,0.00
2019-04-21T02:31:26.646Z,0.00
2019-04-21T02:32:24.748Z,0.00
2019-04-21T02:33:43.099Z,0.00
2019-04-21T02:34:27.551Z,0.00
2019-04-21T02:37:36.772Z,0.00
2019-04-21T02:38:30.262Z,0.00
2019-04-21T02:40:36.238Z,0.00
2019-04-21T02:41:34.632Z,0.00
2019-04-21T02:42:32.418Z,0.00
2019-04-21T02:43:50.023Z,0.00
2019-04-21T02:44:34.226Z,0.00
2019-04-21T02:46:31.298Z,0.00
2019-04-21T02:47:37.197Z,0.00
2019-04-21T02:48:28.564Z,0.00
2019-04-21T02:49:38.162Z,0.00
2019-04-21T02:50:17.597Z,0.00
2019-04-21T02:51:33.678Z,0.00
2019-04-21T02:53:46.028Z,0.00
2019-04-21T02:55:30.500Z,0.00
2019-04-21T02:56:48.702Z,0.00
2019-04-21T02:57:22.904Z,0.00
2019-04-21T02:59:33.695Z,0.00
2019-04-21T03:02:33.778Z,0.00
2019-04-21T03:03:27.667Z,0.00
2019-04-21T03:04:30.292Z,0.00
2019-04-21T03:05:41.682Z,0.00
2019-04-21T03:06:39.389Z,0.00
2019-04-21T03:07:46.499Z,0.00
2019-04-21T03:08:37.939Z,0.00
2019-04-21T03:09:42.709Z,0.00
2019-04-21T03:11:34.984Z,0.00
2019-04-21T03:12:22.202Z,0.00
2019-04-21T03:13:29.503Z,0.00
2019-04-21T03:14:41.307Z,0.00
2019-04-21T03:15:29.238Z,0.00
2019-04-21T03:16:32.372Z,0.00
2019-04-21T03:17:29.220Z,0.00
2019-04-21T03:19:36.209Z,0.00
2019-04-21T03:20:23.964Z,0.00
2019-04-21T03:21:28.674Z,0.00
2019-04-21T03:22:24.311Z,0.00
2019-04-21T03:23:29.776Z,0.00
2019-04-21T03:24:29.425Z,0.00
2019-04-21T03:28:30.514Z,0.00
2019-04-21T03:29:29.508Z,0.00
2019-04-21T03:30:45.167Z,0.00
2019-04-21T03:34:12.215Z,0.00
2019-04-21T03:36:04.585Z,0.00
2019-04-21T03:36:47.821Z,0.00
2019-04-21T03:38:31.381Z,0.00
2019-04-21T03:39:32.499Z,0.00
2019-04-21T03:40:18.817Z,0.00
2019-04-21T03:41:32.320Z,0.00
2019-04-21T03:44:22.844Z,0.00
2019-04-21T03:45:36.848Z,0.00
2019-04-21T03:46:32.516Z,0.00
2019-04-21T03:47:30.899Z,0.00
2019-04-21T03:48:28.780Z,0.00
2019-04-21T03:49:36.477Z,0.00
2019-04-21T03:50:29.677Z,0.00
2019-04-21T03:52:37.079Z,0.00
2019-04-21T03:53:26.627Z,0.00
2019-04-21T03:54:32.908Z,4.00
2019-04-21T03:56:45.263Z,0.00
2019-04-21T03:57:38.751Z,4.00
2019-04-21T03:59:16.117Z,4.00
2019-04-21T04:00:44.922Z,4.00
2019-04-21T04:01:21.992Z,4.00
2019-04-21T04:02:45.199Z,4.00
2019-04-21T04:05:42.341Z,12.00
2019-04-21T04:07:33.790Z,16.00
2019-04-21T04:08:44.507Z,16.00
2019-04-21T04:10:22.822Z,24.00
2019-04-21T04:12:23.137Z,28.00
2019-04-21T04:13:26.542Z,36.00
2019-04-21T04:15:35.106Z,48.00
2019-04-21T04:18:41.143Z,64.00
2019-04-21T04:19:30.589Z,80.00
2019-04-21T04:21:30.372Z,96.00
2019-04-21T04:23:31.356Z,124.00
2019-04-21T04:25:27.997Z,152.00
2019-04-21T04:26:22.111Z,168.00
2019-04-21T04:27:54.028Z,184.00
2019-04-21T04:28:28.140Z,200.00
2019-04-21T04:30:32.397Z,240.00
2019-04-21T04:31:35.383Z,256.00
2019-04-21T04:32:23.146Z,280.00
2019-04-21T04:33:30.414Z,304.00
2019-04-21T04:36:39.969Z,372.00
2019-04-21T04:39:36.693Z,452.00
2019-04-21T04:41:49.576Z,500.00
2019-04-21T04:44:42.042Z,588.00
2019-04-21T04:45:38.460Z,616.00
2019-04-21T04:46:33.346Z,644.00
2019-04-21T04:47:29.947Z,672.00
2019-04-21T04:48:20.342Z,704.00
2019-04-21T04:49:39.031Z,732.00
2019-04-21T04:50:33.813Z,764.00
2019-04-21T04:51:35.876Z,796.00
2019-04-21T04:54:32.377Z,888.00
2019-04-21T04:56:38.385Z,944.00
2019-04-21T04:57:39.573Z,980.00
2019-04-21T04:58:39.824Z,1008.00
2019-04-21T04:59:35.451Z,1040.00
2019-04-21T05:01:32.652Z,1100.00
2019-04-21T05:02:27.731Z,1132.00
2019-04-21T05:04:23.831Z,1188.00
2019-04-21T05:05:26.796Z,1224.00
2019-04-21T05:07:25.004Z,1280.00
2019-04-21T05:08:31.445Z,1312.00
2019-04-21T05:10:33.018Z,1372.00
2019-04-21T05:11:36.758Z,1400.00
2019-04-21T05:12:15.968Z,1424.00
2019-04-21T05:13:26.044Z,1456.00
2019-04-21T05:15:19.183Z,1512.00
2019-04-21T05:16:36.755Z,1540.00
2019-04-21T05:18:24.413Z,1592.00
2019-04-21T05:19:32.745Z,1624.00
2019-04-21T05:20:17.024Z,1656.00
2019-04-21T05:21:30.242Z,1680.00
2019-04-21T05:24:36.036Z,1764.00
2019-04-21T05:25:23.336Z,1796.00
2019-04-21T05:31:08.687Z,1936.00
2019-04-21T05:34:18.591Z,2024.00
2019-04-21T05:35:15.628Z,2044.00
2019-04-21T05:37:39.808Z,2100.00
2019-04-21T05:38:34.633Z,2124.00
2019-04-21T05:41:37.326Z,2200.00
2019-04-21T05:42:39.637Z,2224.00
2019-04-21T05:43:50.336Z,2248.00
2019-04-21T05:51:20.480Z,2416.00
2019-04-21T05:52:19.832Z,2436.00
2019-04-21T05:56:03.569Z,2508.00
2019-04-21T05:56:59.763Z,2528.00
2019-04-21T06:06:27.478Z,2712.00
2019-04-21T06:08:25.336Z,2744.00
2019-04-21T06:09:35.198Z,2764.00
2019-04-21T06:10:30.473Z,2784.00
2019-04-21T06:11:26.669Z,2800.00
2019-04-21T06:12:21.894Z,2824.00
2019-04-21T06:13:51.967Z,2836.00
2019-04-21T06:14:31.122Z,2852.00
2019-04-21T06:15:32.589Z,2868.00
2019-04-21T06:16:34.474Z,2888.00
2019-04-21T06:17:31.441Z,2904.00
2019-04-21T06:22:22.182Z,2980.00
2019-04-21T06:26:17.905Z,3032.00
2019-04-21T06:27:57.501Z,3064.00
2019-04-21T06:29:13.363Z,3084.00
2019-04-21T06:31:05.490Z,3112.00
2019-04-21T06:32:20.434Z,3124.00
2019-04-21T06:34:04.775Z,3156.00
2019-04-21T06:35:13.355Z,3168.00
2019-04-21T06:38:51.408Z,3216.00
2019-04-21T06:41:27.760Z,3268.00
2019-04-21T06:44:16.575Z,3304.00
2019-04-21T06:47:30.206Z,3344.00
2019-04-21T06:49:13.167Z,3368.00
2019-04-21T06:50:25.635Z,3384.00
2019-04-21T06:51:22.551Z,3396.00
2019-04-21T06:52:41.890Z,3412.00
2019-04-21T06:53:35.781Z,3424.00
2019-04-21T06:54:23.579Z,3436.00
2019-04-21T06:56:05.038Z,3452.00
2019-04-21T06:56:27.088Z,3464.00
2019-04-21T06:57:26.010Z,3472.00
2019-04-21T06:58:18.365Z,3484.00
2019-04-21T06:59:14.887Z,3500.00
2019-04-21T07:00:18.435Z,3512.00
2019-04-21T07:03:58.947Z,3548.00
2019-04-21T07:07:54.701Z,3588.00
2019-04-21T07:14:59.493Z,3660.00
2019-04-21T07:16:04.045Z,3664.00
2019-04-21T07:21:29.801Z,3724.00
2019-04-21T07:22:33.761Z,3732.00
2019-04-21T07:23:30.270Z,3740.00
2019-04-21T07:25:29.758Z,3760.00
2019-04-21T07:26:25.302Z,3772.00
2019-04-21T07:27:30.332Z,3780.00
2019-04-21T07:28:25.382Z,3784.00
2019-04-21T07:29:32.114Z,3796.00
2019-04-21T07:30:31.721Z,3804.00
2019-04-21T07:31:28.966Z,3820.00
2019-04-21T07:32:26.538Z,3828.00
2019-04-21T07:34:28.964Z,3844.00
2019-04-21T07:35:25.011Z,3848.00
2019-04-21T07:36:32.349Z,3852.00
2019-04-21T07:37:25.524Z,3868.00
2019-04-21T07:38:23.969Z,3872.00
2019-04-21T07:39:22.114Z,3888.00
2019-04-21T07:40:22.294Z,3884.00
2019-04-21T07:41:20.020Z,3900.00
2019-04-21T07:42:20.303Z,3908.00
2019-04-21T07:43:16.417Z,3916.00
2019-04-21T07:44:17.052Z,3928.00
2019-04-21T07:45:17.938Z,3932.00
2019-04-21T07:46:17.181Z,3948.00
2019-04-21T07:47:25.334Z,3956.00
2019-04-21T07:48:28.915Z,3960.00
2019-04-21T07:49:28.112Z,3976.00
2019-04-21T07:50:28.623Z,3976.00
2019-04-21T07:51:25.448Z,3988.00
2019-04-21T07:52:18.926Z,3996.00
2019-04-21T07:53:32.286Z,4004.00
2019-04-21T07:54:33.798Z,4008.00
2019-04-21T07:56:09.355Z,4028.00
2019-04-21T07:57:19.022Z,4036.00
2019-04-21T07:58:24.327Z,4036.00
2019-04-21T07:59:30.344Z,4056.00
2019-04-21T08:00:45.485Z,4060.00
2019-04-21T08:01:26.959Z,4076.00
2019-04-21T08:02:22.153Z,4080.00
2019-04-21T08:03:43.860Z,4096.00
2019-04-21T08:06:58.182Z,4136.00
2019-04-21T08:07:55.800Z,4148.00
2019-04-21T08:09:51.494Z,4156.00
2019-04-21T08:10:53.879Z,4172.00
2019-04-21T08:12:54.181Z,4200.00
2019-04-21T08:13:58.576Z,4208.00
2019-04-21T08:16:03.107Z,4232.00
2019-04-21T08:17:03.301Z,4244.00
2019-04-21T08:19:12.906Z,4268.00
2019-04-21T08:20:14.297Z,4280.00
2019-04-21T08:21:16.425Z,4292.00
2019-04-21T08:23:13.246Z,4320.00
2019-04-21T08:24:14.955Z,4328.00
2019-04-21T08:25:14.933Z,4336.00
2019-04-21T08:26:19.126Z,4344.00
2019-04-21T08:27:28.304Z,4352.00
2019-04-21T08:28:09.079Z,4364.00
2019-04-21T08:29:21.304Z,4372.00
2019-04-21T08:30:11.517Z,4388.00
2019-04-21T08:31:14.342Z,4400.00
2019-04-21T08:32:14.510Z,4408.00
2019-04-21T08:33:25.046Z,4416.00
2019-04-21T08:34:13.943Z,4428.00
2019-04-21T08:35:34.236Z,4440.00
2019-04-21T08:36:19.381Z,4456.00
2019-04-21T08:37:16.546Z,4480.00
2019-04-21T08:38:15.105Z,4504.00
2019-04-21T08:39:13.216Z,4520.00
2019-04-21T08:40:19.322Z,4528.00
2019-04-21T08:41:16.432Z,4556.00
2019-04-21T08:42:14.215Z,4580.00
2019-04-21T08:43:08.860Z,4612.00
2019-04-21T08:44:16.832Z,4644.00
2019-04-21T08:45:15.147Z,4688.00
2019-04-21T08:46:16.942Z,4740.00
2019-04-21T08:47:15.401Z,4776.00
2019-04-21T08:48:10.574Z,4832.00
2019-04-21T08:49:15.541Z,4892.00
2019-04-21T08:50:08.442Z,4956.00
2019-04-21T08:52:21.757Z,5044.00
2019-04-21T08:53:21.158Z,5084.00
2019-04-21T08:54:15.128Z,5128.00
2019-04-21T08:55:15.552Z,5164.00
2019-04-21T08:56:18.481Z,5200.00
2019-04-21T08:57:20.152Z,5240.00
2019-04-21T08:58:22.008Z,5284.00
2019-04-21T09:00:12.283Z,5348.00
2019-04-21T09:01:17.813Z,5380.00
2019-04-21T09:02:14.581Z,5388.00
2019-04-21T09:03:17.901Z,5424.00
2019-04-21T09:04:13.183Z,5460.00
2019-04-21T09:05:15.451Z,5476.00
2019-04-21T09:06:16.953Z,5504.00
2019-04-21T09:08:13.740Z,5580.00
2019-04-21T09:09:14.365Z,5608.00
2019-04-21T09:10:09.421Z,5644.00
2019-04-21T09:11:05.508Z,5692.00
2019-04-21T09:12:10.660Z,5720.00
2019-04-21T09:13:14.897Z,5744.00
2019-04-21T09:14:13.403Z,5756.00
2019-04-21T09:15:08.287Z,5788.00
2019-04-21T09:16:09.469Z,5796.00
2019-04-21T09:17:08.296Z,5816.00
2019-04-21T09:18:05.367Z,5828.00
2019-04-21T09:19:04.429Z,5864.00
2019-04-21T09:20:17.001Z,5836.00
2019-04-21T09:21:14.909Z,5840.00
2019-04-21T09:22:05.745Z,5864.00
2019-04-21T09:23:11.405Z,5896.00
2019-04-21T09:24:14.722Z,5892.00
2019-04-21T09:25:09.382Z,5912.00
2019-04-21T09:26:10.464Z,5920.00
2019-04-21T09:27:08.447Z,5904.00
2019-04-21T09:28:08.086Z,5904.00
2019-04-21T09:29:05.855Z,5896.00
2019-04-21T09:29:55.885Z,5900.00
2019-04-21T09:30:55.960Z,5908.00
2019-04-21T09:31:55.081Z,5904.00
2019-04-21T09:32:54.463Z,5952.00
2019-04-21T09:33:54.404Z,5960.00
2019-04-21T09:34:52.673Z,5968.00
2019-04-21T09:35:58.724Z,5964.00
2019-04-21T09:36:54.889Z,5944.00
2019-04-21T09:38:00.232Z,5944.00
2019-04-21T09:39:00.205Z,5984.00
2019-04-21T09:39:53.542Z,5948.00
2019-04-21T09:40:54.011Z,5944.00
2019-04-21T09:41:54.543Z,5948.00
2019-04-21T09:42:57.478Z,5972.00
2019-04-21T09:43:54.017Z,5976.00
2019-04-21T09:44:55.652Z,5988.00
2019-04-21T09:45:51.935Z,5988.00
2019-04-21T09:46:54.893Z,5980.00
2019-04-21T09:47:59.012Z,5980.00
2019-04-21T09:48:58.644Z,5988.00
2019-04-21T09:49:51.687Z,6004.00
2019-04-21T09:50:50.520Z,5984.00
2019-04-21T09:51:50.613Z,5980.00
2019-04-21T09:52:58.240Z,5972.00
2019-04-21T09:53:57.227Z,5972.00
2019-04-21T09:54:58.639Z,5948.00
2019-04-21T09:55:56.774Z,5964.00
2019-04-21T09:56:54.980Z,5984.00
2019-04-21T09:57:55.684Z,5976.00
2019-04-21T09:58:57.375Z,5984.00
2019-04-21T10:00:02.146Z,6012.00
2019-04-21T10:01:01.405Z,5996.00
2019-04-21T10:01:59.174Z,5996.00
2019-04-21T10:02:59.955Z,5992.00
2019-04-21T10:03:56.666Z,5988.00
2019-04-21T10:04:50.533Z,5964.00
2019-04-21T10:05:50.277Z,5948.00
2019-04-21T10:06:50.305Z,5960.00
2019-04-21T10:07:50.781Z,5952.00
2019-04-21T10:08:57.520Z,5976.00
2019-04-21T10:09:50.104Z,5992.00
2019-04-21T10:10:51.144Z,5968.00
2019-04-21T10:11:50.485Z,5972.00
2019-04-21T10:12:50.004Z,5988.00
2019-04-21T10:13:50.729Z,6000.00
2019-04-21T10:14:50.258Z,6004.00
2019-04-21T10:15:49.891Z,5984.00
2019-04-21T10:16:49.881Z,5984.00
2019-04-21T10:17:51.997Z,5964.00
2019-04-21T10:18:50.438Z,5956.00
2019-04-21T10:19:50.686Z,5952.00
2019-04-21T10:20:51.240Z,5956.00
2019-04-21T10:21:50.155Z,5940.00
2019-04-21T10:22:50.867Z,5928.00
2019-04-21T10:23:50.104Z,5952.00
2019-04-21T10:24:50.438Z,5940.00
2019-04-21T10:25:50.590Z,5952.00
2019-04-21T10:26:51.360Z,5944.00
2019-04-21T10:27:51.246Z,5960.00
2019-04-21T10:28:50.980Z,5960.00
2019-04-21T10:29:50.554Z,5956.00
2019-04-21T10:30:50.873Z,5956.00
2019-04-21T10:31:50.518Z,5952.00
2019-04-21T10:32:50.231Z,5952.00
2019-04-21T10:33:50.298Z,5932.00
2019-04-21T10:34:49.706Z,5932.00
2019-04-21T10:35:50.793Z,5936.00
2019-04-21T10:36:51.173Z,5928.00
2019-04-21T10:38:02.744Z,5928.00
2019-04-21T10:38:52.206Z,5904.00
2019-04-21T10:39:49.637Z,5896.00
2019-04-21T10:40:49.709Z,5896.00
2019-04-21T10:41:49.446Z,5892.00
2019-04-21T10:42:50.071Z,5884.00
2019-04-21T10:43:49.530Z,5876.00
2019-04-21T10:44:49.665Z,5876.00
2019-04-21T10:45:50.621Z,5888.00
2019-04-21T10:46:51.843Z,5880.00
2019-04-21T10:47:49.370Z,5892.00
2019-04-21T10:48:50.566Z,5900.00
2019-04-21T10:49:50.667Z,5884.00
2019-04-21T10:50:49.418Z,5872.00
2019-04-21T10:51:49.305Z,5844.00
2019-04-21T10:52:49.447Z,5848.00
2019-04-21T10:53:52.378Z,5856.00
2019-04-21T10:55:11.158Z,5832.00
2019-04-21T10:56:12.203Z,5828.00
2019-04-21T10:57:56.590Z,5840.00
2019-04-21T10:58:58.261Z,5864.00
2019-04-21T10:59:58.195Z,5856.00
2019-04-21T11:00:57.833Z,5848.00
2019-04-21T11:01:56.850Z,5824.00
2019-04-21T11:02:56.927Z,5808.00
2019-04-21T11:03:58.546Z,5800.00
2019-04-21T11:04:56.678Z,5804.00
2019-04-21T11:05:56.690Z,5784.00
2019-04-21T11:06:59.424Z,5768.00
2019-04-21T11:08:09.049Z,5780.00
2019-04-21T11:08:59.001Z,5776.00
2019-04-21T11:09:56.102Z,5776.00
2019-04-21T11:10:56.493Z,5764.00
2019-04-21T11:11:55.996Z,5764.00
2019-04-21T11:12:56.825Z,5760.00
2019-04-21T11:13:56.820Z,5756.00
2019-04-21T11:14:56.885Z,5748.00
2019-04-21T11:15:57.037Z,5748.00
2019-04-21T11:16:56.598Z,5756.00
2019-04-21T11:17:55.778Z,5744.00
2019-04-21T11:18:55.933Z,5748.00
2019-04-21T11:19:56.953Z,5752.00
2019-04-21T11:20:55.664Z,5764.00
2019-04-21T11:21:56.758Z,5776.00
2019-04-21T11:22:55.979Z,5800.00
2019-04-21T11:23:56.533Z,5984.00
2019-04-21T11:24:56.573Z,6184.00
2019-04-21T11:25:55.866Z,6200.00
2019-04-21T11:26:55.899Z,6252.00
2019-04-21T11:27:55.694Z,6248.00
2019-04-21T11:28:56.725Z,6228.00
2019-04-21T11:29:55.864Z,6272.00
2019-04-21T11:30:57.035Z,6296.00
2019-04-21T11:31:56.765Z,6316.00
2019-04-21T11:32:55.406Z,6372.00
2019-04-21T11:33:55.437Z,6400.00
2019-04-21T11:34:55.257Z,6424.00
2019-04-21T11:35:55.446Z,6460.00
2019-04-21T11:36:56.341Z,6544.00
2019-04-21T11:38:04.573Z,6576.00
2019-04-21T11:39:09.833Z,6612.00
2019-04-21T11:40:02.707Z,6672.00
2019-04-21T11:40:55.920Z,6708.00
2019-04-21T11:41:55.124Z,6776.00
2019-04-21T11:42:55.610Z,6816.00
2019-04-21T11:43:55.174Z,6868.00
2019-04-21T11:44:55.422Z,6988.00
2019-04-21T11:45:54.998Z,7148.00
2019-04-21T11:46:56.249Z,7412.00
2019-04-21T11:47:56.342Z,7704.00
2019-04-21T11:48:55.051Z,7936.00
2019-04-21T11:49:55.069Z,8064.00
2019-04-21T11:50:55.271Z,8104.00
2019-04-21T11:51:56.347Z,8064.00
2019-04-21T11:52:54.961Z,8100.00
2019-04-21T11:53:55.077Z,8116.00
2019-04-21T11:54:55.107Z,8076.00
2019-04-21T11:55:55.550Z,8020.00
2019-04-21T11:56:55.033Z,8012.00
2019-04-21T11:57:56.422Z,8040.00
2019-04-21T11:58:54.834Z,8076.00
2019-04-21T11:59:55.523Z,8128.00
2019-04-21T12:00:55.724Z,8180.00
2019-04-21T12:01:54.693Z,8232.00
2019-04-21T12:02:55.419Z,8288.00
2019-04-21T12:03:55.706Z,8328.00
2019-04-21T12:04:54.665Z,8408.00
2019-04-21T12:05:55.289Z,8452.00
2019-04-21T12:06:55.927Z,8508.00
2019-04-21T12:07:58.304Z,8584.00
2019-04-21T12:08:57.721Z,8668.00
2019-04-21T12:09:55.502Z,8728.00
2019-04-21T12:10:55.498Z,8788.00
2019-04-21T12:11:54.615Z,8840.00
2019-04-21T12:12:55.168Z,8880.00
2019-04-21T12:13:54.456Z,8956.00
2019-04-21T12:14:54.748Z,8976.00
2019-04-21T12:15:54.847Z,9012.00
2019-04-21T12:16:55.159Z,9084.00
2019-04-21T12:17:54.486Z,9124.00
2019-04-21T12:18:54.688Z,9152.00
2019-04-21T12:19:54.761Z,9236.00
2019-04-21T12:20:55.575Z,9312.00
2019-04-21T12:22:05.282Z,9348.00
2019-04-21T12:22:54.915Z,9436.00
2019-04-21T12:23:54.418Z,9488.00
2019-04-21T12:24:55.493Z,9564.00
2019-04-21T12:25:54.812Z,9572.00
2019-04-21T12:26:54.325Z,9676.00
2019-04-21T12:27:54.325Z,9752.00
2019-04-21T12:28:55.738Z,9764.00
2019-04-21T12:29:55.261Z,9804.00
2019-04-21T12:30:54.177Z,9844.00
2019-04-21T12:31:54.158Z,9916.00
2019-04-21T12:32:54.117Z,10056.00
2019-04-21T12:33:54.354Z,10132.00
2019-04-21T12:34:55.312Z,10196.00
2019-04-21T12:35:54.183Z,10232.00
2019-04-21T12:36:54.969Z,10248.00
2019-04-21T12:37:55.049Z,10312.00
2019-04-21T12:38:57.834Z,10388.00
2019-04-21T12:39:54.749Z,10528.00
2019-04-21T12:40:54.864Z,10568.00
2019-04-21T12:41:54.297Z,10632.00
2019-04-21T12:42:54.877Z,10704.00
2019-04-21T12:43:54.982Z,10760.00
2019-04-21T12:44:55.041Z,10848.00
2019-04-21T12:45:53.907Z,10936.00
2019-04-21T12:46:54.108Z,10996.00
2019-04-21T12:47:54.044Z,11052.00
2019-04-21T12:48:54.081Z,11144.00
2019-04-21T12:49:54.084Z,11220.00
2019-04-21T12:50:54.251Z,11268.00
2019-04-21T12:51:53.818Z,11320.00
2019-04-21T12:52:53.795Z,11392.00
2019-04-21T12:53:54.074Z,11416.00
2019-04-21T12:54:53.769Z,11492.00
2019-04-21T12:55:53.905Z,11564.00
2019-04-21T12:56:53.927Z,11616.00
2019-04-21T12:57:55.128Z,11716.00
2019-04-21T12:58:53.833Z,11808.00
2019-04-21T12:59:54.919Z,11860.00
2019-04-21T13:00:54.723Z,11956.00
2019-04-21T13:01:54.825Z,12040.00
2019-04-21T13:02:53.998Z,12140.00
2019-04-21T13:03:53.895Z,12196.00
2019-04-21T13:04:54.593Z,12312.00
2019-04-21T13:05:53.806Z,12344.00
2019-04-21T13:06:53.606Z,12328.00
2019-04-21T13:07:53.673Z,12416.00
2019-04-21T13:09:01.450Z,12440.00
2019-04-21T13:09:54.591Z,12468.00
2019-04-21T13:10:53.962Z,12464.00
2019-04-21T13:11:53.521Z,12612.00
2019-04-21T13:12:54.260Z,12652.00
2019-04-21T13:13:53.697Z,12656.00
2019-04-21T13:14:55.911Z,12804.00
2019-04-21T13:15:53.530Z,12900.00
2019-04-21T13:16:53.497Z,12968.00
2019-04-21T13:17:54.213Z,12964.00
2019-04-21T13:18:53.561Z,13032.00
2019-04-21T13:19:53.623Z,13040.00
2019-04-21T13:20:54.027Z,13136.00
2019-04-21T13:21:54.026Z,13212.00
2019-04-21T13:22:54.342Z,13316.00
2019-04-21T13:23:54.704Z,13428.00
2019-04-21T13:24:53.856Z,13428.00
2019-04-21T13:25:54.165Z,13472.00
2019-04-21T13:26:58.110Z,13540.00
2019-04-21T13:27:54.472Z,13572.00
2019-04-21T13:28:54.237Z,13580.00
2019-04-21T13:29:54.461Z,13592.00
2019-04-21T13:30:54.012Z,13648.00
2019-04-21T13:31:54.280Z,13776.00
2019-04-21T13:32:53.543Z,13876.00
2019-04-21T13:33:53.457Z,13984.00
2019-04-21T13:34:54.879Z,14140.00
2019-04-21T13:35:53.295Z,14280.00
2019-04-21T13:36:53.959Z,14352.00
2019-04-21T13:37:54.403Z,14524.00
2019-04-21T13:39:24.961Z,14608.00
2019-04-21T13:40:14.654Z,14724.00
2019-04-21T13:41:11.877Z,14644.00
2019-04-21T13:42:02.755Z,14840.00
2019-04-21T13:42:57.235Z,14904.00
2019-04-21T13:43:53.147Z,14988.00
2019-04-21T13:44:56.194Z,15064.00
2019-04-21T13:45:54.087Z,15136.00
2019-04-21T13:46:54.496Z,15252.00
2019-04-21T13:47:54.480Z,15428.00
2019-04-21T13:48:54.727Z,15548.00
2019-04-21T13:49:54.848Z,15508.00
2019-04-21T13:50:53.447Z,15612.00
2019-04-21T13:51:54.186Z,15740.00
2019-04-21T13:52:54.346Z,15724.00
2019-04-21T13:53:53.634Z,15872.00
2019-04-21T13:54:53.768Z,15880.00
2019-04-21T13:55:53.237Z,15952.00
2019-04-21T13:56:54.251Z,16020.00
2019-04-21T13:57:54.445Z,16088.00
2019-04-21T13:58:52.979Z,16232.00
2019-04-21T13:59:53.166Z,16280.00
2019-04-21T14:00:54.228Z,16672.00
2019-04-21T14:01:54.037Z,16800.00
2019-04-21T14:02:54.480Z,17024.00
2019-04-21T14:03:53.544Z,17280.00
2019-04-21T14:04:53.698Z,17536.00
2019-04-21T14:05:54.139Z,17728.00
2019-04-21T14:06:54.172Z,18048.00
2019-04-21T14:07:54.370Z,18336.00
2019-04-21T14:08:52.875Z,18720.00
2019-04-21T14:09:57.703Z,19200.00
2019-04-21T14:10:53.600Z,19712.00
2019-04-21T14:11:55.334Z,20288.00
2019-04-21T14:12:54.129Z,21088.00
2019-04-21T14:13:54.295Z,22016.00
2019-04-21T14:14:54.327Z,22880.00
2019-04-21T14:15:53.852Z,23648.00
2019-04-21T14:16:54.157Z,24608.00
2019-04-21T14:17:53.197Z,25760.00
2019-04-21T14:18:52.898Z,27104.00
2019-04-21T14:19:53.169Z,28736.00
2019-04-21T14:20:53.374Z,30496.00
2019-04-21T14:21:53.223Z,32320.00
2019-04-21T14:22:53.903Z,35136.00
2019-04-21T14:23:54.271Z,37792.00
2019-04-21T14:24:53.874Z,41312.00
2019-04-21T14:25:53.350Z,45312.00
2019-04-21T14:26:52.709Z,49856.00
2019-04-21T14:27:54.559Z,53856.00
2019-04-21T14:28:52.707Z,56896.00
2019-04-21T14:29:53.541Z,60032.00
2019-04-21T14:30:52.814Z,63648.00
2019-04-21T14:31:52.759Z,65920.00
2019-04-21T14:32:54.013Z,68192.00
2019-04-21T14:33:54.125Z,69792.00
2019-04-21T14:34:54.067Z,70784.00
2019-04-21T14:35:52.766Z,68352.00
2019-04-21T14:36:52.923Z,65696.00
2019-04-21T14:37:52.951Z,61760.00